createdAt,value
2018-06-03T00:01:46.353Z,95.83
2018-06-03T00:04:14.605Z,93.43
2018-06-03T00:06:42.835Z,87.73
2018-06-03T00:09:11.070Z,97.93
2018-06-03T00:11:39.353Z,100.47
2018-06-03T00:14:07.612Z,92.50
2018-06-03T00:16:35.908Z,104.13
2018-06-03T00:19:04.180Z,109.70
2018-06-03T00:21:43.120Z,118.60
2018-06-03T00:24:11.533Z,119.87
2018-06-03T00:26:39.800Z,110.93
2018-06-03T00:29:08.408Z,110.50
2018-06-03T00:31:36.632Z,129.03
2018-06-03T00:34:04.894Z,123.10
2018-06-03T00:36:44.143Z,117.87
2018-06-03T00:39:12.421Z,135.50
2018-06-03T00:41:40.620Z,137.37
2018-06-03T00:44:08.888Z,119.27
2018-06-03T00:46:37.144Z,117.03
2018-06-03T00:49:05.699Z,120.07
2018-06-03T00:51:33.913Z,124.10
2018-06-03T00:54:02.116Z,118.10
2018-06-03T00:56:41.750Z,141.93
2018-06-03T00:59:09.989Z,141.80
2018-06-03T01:01:38.187Z,129.13
2018-06-03T01:04:06.433Z,134.77
2018-06-03T01:06:34.672Z,128.67
2018-06-03T01:09:02.931Z,128.80
2018-06-03T01:11:31.206Z,124.43
2018-06-03T01:13:59.916Z,127.03
2018-06-03T01:16:28.197Z,140.60
2018-06-03T01:18:56.611Z,126.87
2018-06-03T01:21:24.909Z,132.73
2018-06-03T01:23:53.129Z,127.27
2018-06-03T01:26:21.355Z,138.53
2018-06-03T01:28:49.614Z,112.57
2018-06-03T01:31:18.034Z,122.17
2018-06-03T01:33:46.280Z,127.93
2018-06-03T01:36:14.501Z,118.53
2018-06-03T01:38:42.835Z,124.17
2018-06-03T01:41:11.092Z,125.77
2018-06-03T01:43:39.337Z,137.30
2018-06-03T01:46:07.573Z,122.77
2018-06-03T01:48:35.820Z,136.87
2018-06-03T01:51:04.040Z,122.20
2018-06-03T01:53:32.313Z,122.83
2018-06-03T01:56:00.544Z,136.80
2018-06-03T01:58:28.800Z,121.37
2018-06-03T02:00:57.072Z,122.33
2018-06-03T02:03:25.309Z,134.17
2018-06-03T02:05:53.519Z,135.63
2018-06-03T02:08:21.772Z,127.83
2018-06-03T02:10:50.177Z,119.30
2018-06-03T02:13:18.397Z,130.47
2018-06-03T02:15:46.748Z,131.50
2018-06-03T02:18:15.025Z,133.50
2018-06-03T02:20:43.265Z,135.43
2018-06-03T02:23:11.536Z,118.13
2018-06-03T02:25:39.760Z,135.23
2018-06-03T02:28:07.807Z,154.43
2018-06-03T02:30:36.044Z,121.90
2018-06-03T02:33:04.289Z,116.83
2018-06-03T02:35:32.526Z,132.77
2018-06-03T02:38:00.789Z,128.70
2018-06-03T02:40:29.247Z,133.50
2018-06-03T02:42:57.208Z,132.07
2018-06-03T02:45:25.470Z,140.53
2018-06-03T02:47:53.701Z,130.37
2018-06-03T02:50:21.937Z,136.13
2018-06-03T02:52:50.247Z,137.60
2018-06-03T02:55:18.468Z,135.37
2018-06-03T02:57:46.686Z,127.57
2018-06-03T03:00:14.956Z,154.03
2018-06-03T03:02:43.211Z,139.87
2018-06-03T03:05:11.410Z,141.00
2018-06-03T03:07:39.745Z,148.07
2018-06-03T03:10:07.953Z,123.57
2018-06-03T03:12:36.241Z,120.77
2018-06-03T03:15:04.636Z,150.90
2018-06-03T03:17:32.879Z,139.13
2018-06-03T03:20:01.136Z,126.10
2018-06-03T03:22:29.396Z,136.97
2018-06-03T03:24:57.703Z,138.30
2018-06-03T03:27:25.984Z,135.67
2018-06-03T03:29:54.232Z,136.23
2018-06-03T03:32:22.575Z,133.87
2018-06-03T03:34:50.828Z,129.83
2018-06-03T03:37:19.126Z,132.07
2018-06-03T03:39:47.588Z,131.00
2018-06-03T03:42:15.857Z,130.17
2018-06-03T03:44:44.224Z,130.13
2018-06-03T03:47:12.533Z,137.13
2018-06-03T03:49:40.828Z,150.03
2018-06-03T03:52:09.132Z,151.13
2018-06-03T03:54:37.368Z,143.10
2018-06-03T03:57:05.629Z,149.07
2018-06-03T03:59:33.630Z,129.23
2018-06-03T04:02:01.920Z,136.60
2018-06-03T04:04:30.225Z,134.20
2018-06-03T04:06:58.508Z,148.20
2018-06-03T04:09:26.559Z,131.60
2018-06-03T04:11:54.845Z,139.23
2018-06-03T04:14:23.133Z,141.30
2018-06-03T04:16:51.464Z,136.30
2018-06-03T04:19:19.698Z,149.77
2018-06-03T04:21:47.711Z,134.43
2018-06-03T04:24:15.968Z,140.63
2018-06-03T04:26:44.254Z,148.47
2018-06-03T04:29:12.519Z,144.47
2018-06-03T04:31:40.804Z,142.00
2018-06-03T04:34:09.084Z,142.60
2018-06-03T04:36:37.372Z,128.70
2018-06-03T04:39:06.320Z,147.30
2018-06-03T04:41:34.324Z,143.77
2018-06-03T04:44:02.614Z,125.93
2018-06-03T04:46:30.896Z,151.90
2018-06-03T04:48:59.159Z,141.20
2018-06-03T04:51:27.437Z,129.57
2018-06-03T04:53:55.814Z,139.20
2018-06-03T04:56:24.078Z,122.00
2018-06-03T04:58:52.108Z,137.20
2018-06-03T05:01:20.431Z,134.13
2018-06-03T05:03:48.721Z,120.37
2018-06-03T05:06:17.000Z,126.47
2018-06-03T05:08:45.251Z,130.33
2018-06-03T05:11:13.279Z,122.93
2018-06-03T05:13:41.509Z,137.53
2018-06-03T05:16:09.827Z,135.33
2018-06-03T05:18:38.112Z,129.67
2018-06-03T05:21:06.404Z,125.43
2018-06-03T05:23:34.709Z,129.90
2018-06-03T05:26:02.951Z,142.37
2018-06-03T05:28:31.207Z,124.97
2018-06-03T05:30:59.660Z,137.00
2018-06-03T05:33:27.924Z,134.30
2018-06-03T05:35:56.208Z,141.10
2018-06-03T05:38:24.446Z,128.17
2018-06-03T05:40:52.728Z,123.20
2018-06-03T05:43:21.021Z,125.23
2018-06-03T05:45:49.275Z,110.60
2018-06-03T05:48:17.561Z,120.97
2018-06-03T05:50:45.815Z,119.07
2018-06-03T05:53:14.251Z,112.33
2018-06-03T05:55:42.543Z,111.57
2018-06-03T05:58:10.827Z,104.50
2018-06-03T06:00:39.180Z,102.80
2018-06-03T06:03:07.727Z,104.23
2018-06-03T06:05:36.209Z,108.53
2018-06-03T06:08:04.554Z,104.97
2018-06-03T06:10:32.811Z,94.57
2018-06-03T06:13:00.844Z,79.50
2018-06-03T06:15:29.120Z,74.20
2018-06-03T06:17:57.461Z,83.73
2018-06-03T06:20:25.888Z,76.73
2018-06-03T06:22:54.180Z,72.97
2018-06-03T06:25:22.187Z,77.57
2018-06-03T06:27:50.476Z,92.40
2018-06-03T06:30:19.006Z,77.30
2018-06-03T06:32:47.423Z,70.50
2018-06-03T06:35:15.687Z,78.40
2018-06-03T06:37:43.964Z,64.87
2018-06-03T06:40:12.237Z,67.20
2018-06-03T06:42:40.763Z,58.10
2018-06-03T06:45:09.059Z,58.03
2018-06-03T06:47:38.321Z,61.73
2018-06-03T06:50:06.646Z,60.43
2018-06-03T06:52:34.881Z,57.10
2018-06-03T06:55:03.473Z,79.73
2018-06-03T06:57:31.728Z,70.37
2018-06-03T07:00:00.107Z,85.87
2018-06-03T07:02:28.376Z,76.53
2018-06-03T07:04:56.609Z,76.47
2018-06-03T07:07:24.908Z,75.07
2018-06-03T07:09:53.198Z,73.27
2018-06-03T07:12:21.480Z,78.67
2018-06-03T07:14:49.752Z,65.80
2018-06-03T07:17:18.034Z,71.10
2018-06-03T07:19:46.308Z,62.00
2018-06-03T07:22:14.585Z,57.43
2018-06-03T07:24:42.862Z,53.83
2018-06-03T07:27:11.149Z,48.47
2018-06-03T07:29:39.392Z,50.00
2018-06-03T07:32:07.685Z,47.30
2018-06-03T07:34:35.975Z,47.67
2018-06-03T07:37:04.275Z,50.03
2018-06-03T07:39:32.546Z,55.97
2018-06-03T07:42:00.807Z,54.20
2018-06-03T07:44:29.064Z,44.33
2018-06-03T07:46:57.364Z,38.73
2018-06-03T07:49:25.620Z,33.97
2018-06-03T07:51:53.905Z,34.40
2018-06-03T07:54:22.183Z,36.50
2018-06-03T07:56:50.477Z,33.77
2018-06-03T07:59:18.775Z,47.90
2018-06-03T08:01:47.068Z,31.73
2018-06-03T08:04:15.349Z,33.57
2018-06-03T08:06:43.623Z,29.13
2018-06-03T08:09:11.883Z,32.90
2018-06-03T08:11:40.142Z,29.53
2018-06-03T08:14:08.422Z,29.37
2018-06-03T08:16:36.718Z,31.33
2018-06-03T08:19:05.286Z,29.47
2018-06-03T08:21:33.543Z,35.33
2018-06-03T08:24:01.560Z,41.90
2018-06-03T08:26:29.857Z,33.97
2018-06-03T08:28:58.313Z,35.57
2018-06-03T08:31:26.609Z,34.67
2018-06-03T08:33:54.949Z,33.43
2018-06-03T08:36:23.306Z,39.03
2018-06-03T08:38:51.595Z,41.97
2018-06-03T08:41:19.896Z,41.70
2018-06-03T08:43:48.174Z,39.10
2018-06-03T08:46:16.451Z,41.10
2018-06-03T08:48:44.718Z,38.43
2018-06-03T08:51:13.024Z,35.93
2018-06-03T08:53:41.318Z,41.43
2018-06-03T08:56:09.653Z,38.37
2018-06-03T08:58:37.908Z,41.27
2018-06-03T09:01:06.288Z,39.50
2018-06-03T09:03:34.575Z,42.53
2018-06-03T09:06:03.080Z,37.33
2018-06-03T09:08:31.341Z,39.80
2018-06-03T09:10:59.588Z,38.47
2018-06-03T09:13:27.929Z,42.10
2018-06-03T09:15:56.186Z,36.47
2018-06-03T09:18:24.458Z,38.73
2018-06-03T09:20:52.902Z,40.23
2018-06-03T09:23:21.144Z,48.77
2018-06-03T09:25:49.448Z,41.83
2018-06-03T09:28:17.724Z,40.20
2018-06-03T09:30:46.035Z,37.37
2018-06-03T09:33:14.329Z,43.90
2018-06-03T09:35:42.569Z,40.03
2018-06-03T09:38:10.873Z,38.90
2018-06-03T09:40:39.138Z,35.33
2018-06-03T09:43:07.433Z,37.83
2018-06-03T09:45:35.688Z,40.60
2018-06-03T09:48:03.976Z,35.43
2018-06-03T09:50:32.490Z,35.27
2018-06-03T09:53:00.778Z,44.90
2018-06-03T09:55:29.070Z,35.20
2018-06-03T09:57:57.303Z,35.77
2018-06-03T10:00:32.899Z,40.10
2018-06-03T10:03:02.049Z,40.13
2018-06-03T10:05:30.373Z,39.27
2018-06-03T10:07:58.673Z,40.33
2018-06-03T10:10:27.235Z,41.70
2018-06-03T10:12:55.533Z,40.17
2018-06-03T10:15:23.820Z,41.40
2018-06-03T10:17:52.126Z,44.13
2018-06-03T10:20:20.412Z,41.87
2018-06-03T10:22:48.952Z,37.10
2018-06-03T10:25:17.244Z,32.70
2018-06-03T10:27:45.656Z,36.90
2018-06-03T10:30:13.932Z,36.20
2018-06-03T10:32:42.184Z,39.13
2018-06-03T10:35:10.497Z,33.73
2018-06-03T10:37:38.761Z,36.03
2018-06-03T10:40:07.108Z,32.93
2018-06-03T10:42:35.393Z,32.43
2018-06-03T10:45:03.717Z,35.53
2018-06-03T10:47:31.967Z,28.60
2018-06-03T10:50:00.235Z,30.10
2018-06-03T10:52:28.504Z,27.40
2018-06-03T10:54:56.812Z,25.87
2018-06-03T10:57:25.108Z,30.80
2018-06-03T10:59:53.421Z,33.33
2018-06-03T11:02:21.668Z,29.57
2018-06-03T11:04:49.952Z,39.37
2018-06-03T11:07:18.270Z,37.90
2018-06-03T11:09:46.629Z,33.80
2018-06-03T11:12:14.888Z,32.43
2018-06-03T11:14:43.182Z,29.37
2018-06-03T11:17:11.484Z,30.17
2018-06-03T11:19:39.817Z,27.03
2018-06-03T11:22:08.065Z,26.90
2018-06-03T11:24:36.364Z,28.70
2018-06-03T11:27:04.712Z,26.80
2018-06-03T11:29:33.001Z,30.80
2018-06-03T11:32:01.342Z,31.57
2018-06-03T11:34:29.609Z,30.23
2018-06-03T11:36:57.898Z,29.07
2018-06-03T11:39:26.162Z,26.17
2018-06-03T11:41:54.447Z,24.50
2018-06-03T11:44:22.733Z,31.70
2018-06-03T11:46:51.100Z,29.90
2018-06-03T11:49:19.090Z,26.50
2018-06-03T11:51:47.380Z,24.47
2018-06-03T11:54:15.668Z,30.73
2018-06-03T11:56:55.202Z,33.80
2018-06-03T11:59:46.697Z,30.27
2018-06-03T12:02:16.488Z,28.33
2018-06-03T12:04:44.748Z,30.63
2018-06-03T12:07:13.028Z,36.43
2018-06-03T12:09:41.369Z,31.60
2018-06-03T12:12:09.672Z,26.90
2018-06-03T12:14:37.977Z,30.47
2018-06-03T12:17:06.232Z,30.20
2018-06-03T12:19:34.656Z,30.47
2018-06-03T12:22:02.918Z,25.43
2018-06-03T12:24:31.238Z,33.63
2018-06-03T12:26:59.520Z,29.80
2018-06-03T12:29:28.027Z,32.10
2018-06-03T12:31:56.341Z,26.93
2018-06-03T12:34:24.344Z,28.27
2018-06-03T12:36:52.624Z,27.23
2018-06-03T12:39:20.881Z,23.17
2018-06-03T12:41:49.160Z,24.10
2018-06-03T12:44:17.408Z,25.80
2018-06-03T12:46:45.677Z,25.30
2018-06-03T12:49:14.306Z,26.27
2018-06-03T12:51:42.611Z,27.00
2018-06-03T12:54:10.974Z,21.83
2018-06-03T12:56:39.237Z,23.50
2018-06-03T12:59:07.475Z,24.07
2018-06-03T13:01:35.906Z,26.37
2018-06-03T13:04:04.188Z,26.77
2018-06-03T13:06:32.459Z,27.77
2018-06-03T13:09:00.788Z,27.80
2018-06-03T13:11:29.109Z,24.03
2018-06-03T13:13:57.561Z,27.80
2018-06-03T13:16:25.824Z,27.20
2018-06-03T13:18:54.156Z,27.97
2018-06-03T13:21:22.425Z,28.77
2018-06-03T13:23:50.682Z,26.93
2018-06-03T13:26:18.988Z,26.67
2018-06-03T13:28:47.241Z,26.07
2018-06-03T13:31:15.540Z,24.97
2018-06-03T13:33:43.802Z,28.17
2018-06-03T13:36:12.108Z,23.27
2018-06-03T13:38:40.409Z,26.67
2018-06-03T13:41:08.697Z,26.90
2018-06-03T13:43:36.988Z,25.83
2018-06-03T13:46:04.968Z,26.90
2018-06-03T13:48:33.235Z,31.63
2018-06-03T13:51:01.521Z,28.00
2018-06-03T13:53:29.844Z,24.07
2018-06-03T13:55:58.067Z,31.37
2018-06-03T13:58:26.356Z,24.67
2018-06-03T14:00:54.602Z,27.23
2018-06-03T14:03:22.886Z,23.63
2018-06-03T14:05:51.175Z,23.27
2018-06-03T14:08:19.467Z,23.13
2018-06-03T14:10:47.708Z,19.13
2018-06-03T14:13:16.009Z,23.07
2018-06-03T14:15:44.535Z,21.00
2018-06-03T14:18:12.925Z,21.70
2018-06-03T14:20:41.263Z,33.10
2018-06-03T14:23:09.548Z,22.93
2018-06-03T14:25:37.924Z,26.70
2018-06-03T14:28:05.942Z,21.10
2018-06-03T14:30:34.373Z,30.10
2018-06-03T14:33:02.615Z,24.73
2018-06-03T14:35:30.939Z,22.10
2018-06-03T14:37:59.203Z,20.50
2018-06-03T14:40:27.496Z,19.23
2018-06-03T14:42:55.948Z,23.07
2018-06-03T14:45:24.282Z,27.33
2018-06-03T14:47:52.553Z,20.20
2018-06-03T14:50:20.841Z,16.47
2018-06-03T14:52:49.128Z,16.53
2018-06-03T14:55:17.432Z,18.10
2018-06-03T14:57:45.687Z,23.80
2018-06-03T15:00:13.915Z,16.43
2018-06-03T15:02:42.180Z,14.50
2018-06-03T15:05:10.486Z,20.37
2018-06-03T15:07:38.740Z,18.27
2018-06-03T15:10:07.186Z,14.80
2018-06-03T15:12:35.444Z,15.13
2018-06-03T15:15:03.719Z,15.67
2018-06-03T15:17:32.058Z,14.50
2018-06-03T15:20:00.364Z,12.10
2018-06-03T15:22:28.629Z,14.37
2018-06-03T15:24:56.906Z,10.30
2018-06-03T15:27:25.134Z,12.90
2018-06-03T15:29:53.359Z,11.13
2018-06-03T15:32:21.639Z,12.37
2018-06-03T15:34:49.888Z,9.97
2018-06-03T15:37:18.176Z,9.23
2018-06-03T15:39:46.207Z,9.90
2018-06-03T15:42:14.492Z,9.13
2018-06-03T15:44:42.736Z,8.70
2018-06-03T15:47:11.003Z,10.50
2018-06-03T15:49:39.259Z,11.03
2018-06-03T15:52:07.583Z,11.30
2018-06-03T15:54:35.865Z,9.93
2018-06-03T15:57:04.332Z,12.20
2018-06-03T15:59:32.652Z,12.03
2018-06-03T16:02:00.907Z,12.37
2018-06-03T16:04:29.196Z,15.40
2018-06-03T16:06:57.650Z,14.40
2018-06-03T16:09:26.084Z,15.70
2018-06-03T16:11:54.375Z,15.27
2018-06-03T16:14:22.644Z,15.50
2018-06-03T16:16:50.931Z,14.50
2018-06-03T16:19:19.265Z,14.83
2018-06-03T16:21:47.514Z,14.23
2018-06-03T16:24:15.891Z,22.83
2018-06-03T16:26:44.113Z,17.97
2018-06-03T16:29:12.440Z,17.60
2018-06-03T16:31:40.789Z,20.73
2018-06-03T16:34:09.036Z,19.03
2018-06-03T16:36:37.261Z,21.90
2018-06-03T16:39:07.076Z,20.40
2018-06-03T16:41:35.527Z,18.03
2018-06-03T16:44:03.793Z,20.27
2018-06-03T16:46:32.083Z,17.27
2018-06-03T16:49:00.395Z,17.80
2018-06-03T16:51:28.883Z,18.27
2018-06-03T16:53:57.164Z,23.20
2018-06-03T16:56:26.135Z,19.33
2018-06-03T16:58:55.087Z,18.40
2018-06-03T17:01:24.292Z,16.07
2018-06-03T17:03:56.490Z,18.20
2018-06-03T17:06:25.464Z,19.27
2018-06-03T17:08:55.462Z,14.97
2018-06-03T17:11:27.436Z,17.33
2018-06-03T17:13:55.718Z,17.40
2018-06-03T17:16:23.770Z,16.90
2018-06-03T17:18:52.072Z,18.90
2018-06-03T17:21:20.127Z,18.83
2018-06-03T17:23:48.412Z,16.87
2018-06-03T17:26:16.989Z,16.80
2018-06-03T17:28:45.305Z,18.60
2018-06-03T17:31:13.585Z,16.80
2018-06-03T17:33:41.923Z,17.97
2018-06-03T17:36:10.201Z,18.33
2018-06-03T17:38:38.476Z,21.37
2018-06-03T17:41:06.831Z,19.70
2018-06-03T17:43:35.129Z,20.87
2018-06-03T17:46:03.432Z,22.20
2018-06-03T17:48:31.754Z,17.03
2018-06-03T17:51:00.012Z,21.87
2018-06-03T17:53:28.350Z,21.13
2018-06-03T17:55:56.348Z,20.20
2018-06-03T17:58:24.750Z,14.57
2018-06-03T18:00:53.684Z,17.77
2018-06-03T18:03:21.950Z,15.73
2018-06-03T18:05:50.268Z,19.30
2018-06-03T18:08:19.323Z,16.57
2018-06-03T18:10:48.227Z,20.57
2018-06-03T18:13:16.965Z,18.60
2018-06-03T18:15:45.412Z,19.77
2018-06-03T18:18:13.696Z,18.27
2018-06-03T18:20:42.067Z,17.97
2018-06-03T18:23:10.123Z,19.93
2018-06-03T18:25:38.394Z,19.80
2018-06-03T18:28:06.672Z,16.00
2018-06-03T18:30:34.755Z,16.20
2018-06-03T18:33:03.052Z,15.80
2018-06-03T18:35:31.074Z,17.30
2018-06-03T18:37:59.315Z,17.77
2018-06-03T18:40:27.600Z,19.60
2018-06-03T18:42:55.818Z,17.97
2018-06-03T18:45:24.092Z,16.73
2018-06-03T18:47:52.370Z,18.70
2018-06-03T18:50:20.601Z,14.47
2018-06-03T18:52:48.605Z,13.40
2018-06-03T18:55:16.987Z,18.40
2018-06-03T18:57:45.260Z,16.70
2018-06-03T19:00:13.592Z,18.80
2018-06-03T19:02:41.848Z,15.43
2018-06-03T19:05:10.172Z,13.30
2018-06-03T19:07:38.446Z,13.40
2018-06-03T19:10:06.784Z,16.73
2018-06-03T19:12:35.131Z,15.80
2018-06-03T19:15:03.465Z,16.17
2018-06-03T19:17:31.817Z,14.47
2018-06-03T19:20:00.048Z,16.67
2018-06-03T19:22:28.356Z,15.53
2018-06-03T19:24:57.047Z,14.27
2018-06-03T19:27:25.305Z,13.93
2018-06-03T19:29:54.512Z,23.63
2018-06-03T19:32:23.448Z,15.77
2018-06-03T19:34:51.972Z,14.03
2018-06-03T19:37:20.476Z,14.73
2018-06-03T19:39:50.016Z,15.20
2018-06-03T19:42:18.491Z,13.10
2018-06-03T19:44:46.940Z,14.15
2018-06-03T19:47:15.488Z,13.63
2018-06-03T19:49:44.616Z,16.43
2018-06-03T19:52:13.018Z,14.90
2018-06-03T19:54:41.929Z,11.83
2018-06-03T19:57:11.508Z,15.73
2018-06-03T19:59:46.892Z,12.83
2018-06-03T20:02:15.713Z,18.50
2018-06-03T20:04:44.374Z,13.47
2018-06-03T20:07:13.279Z,14.37
2018-06-03T20:09:42.190Z,13.20
2018-06-03T20:12:10.920Z,13.20
2018-06-03T20:14:39.657Z,20.00
2018-06-03T20:17:08.427Z,14.43
2018-06-03T20:19:37.167Z,13.20
2018-06-03T20:22:06.567Z,16.80
2018-06-03T20:24:35.202Z,15.40
2018-06-03T20:27:03.993Z,17.90
2018-06-03T20:29:32.364Z,14.63
2018-06-03T20:32:01.351Z,13.90
2018-06-03T20:34:29.639Z,15.90
2018-06-03T20:36:57.952Z,14.73
2018-06-03T20:39:26.550Z,15.33
2018-06-03T20:41:55.086Z,15.27
2018-06-03T20:44:23.193Z,17.20
2018-06-03T20:46:51.538Z,14.80
2018-06-03T20:49:19.816Z,16.77
2018-06-03T20:51:48.116Z,16.77
2018-06-03T20:54:16.375Z,14.90
2018-06-03T20:56:44.706Z,17.60
2018-06-03T20:59:12.855Z,16.80
2018-06-03T21:01:41.170Z,18.90
2018-06-03T21:04:09.483Z,19.60
2018-06-03T21:06:37.747Z,16.07
2018-06-03T21:09:07.517Z,16.50
2018-06-03T21:11:36.132Z,14.80
2018-06-03T21:14:04.439Z,16.00
2018-06-03T21:16:32.689Z,18.30
2018-06-03T21:19:00.999Z,14.27
2018-06-03T21:21:29.277Z,16.57
2018-06-03T21:23:57.531Z,16.30
2018-06-03T21:26:25.843Z,14.57
2018-06-03T21:28:54.123Z,18.00
2018-06-03T21:31:22.458Z,18.73
2018-06-03T21:33:57.196Z,15.83
2018-06-03T21:36:25.524Z,16.20
2018-06-03T21:38:53.836Z,15.93
2018-06-03T21:41:22.108Z,15.40
2018-06-03T21:43:50.398Z,15.90
2018-06-03T21:46:18.728Z,17.03
2018-06-03T21:48:47.012Z,16.67
2018-06-03T21:51:15.308Z,14.87
2018-06-03T21:53:43.576Z,15.90
2018-06-03T21:56:11.896Z,17.43
2018-06-03T21:58:40.300Z,25.57
2018-06-03T22:01:14.979Z,16.63
2018-06-03T22:03:43.288Z,15.30
2018-06-03T22:06:11.301Z,18.00
2018-06-03T22:08:39.648Z,22.70
2018-06-03T22:11:07.929Z,17.00
2018-06-03T22:13:36.319Z,17.03
2018-06-03T22:16:04.625Z,18.57
2018-06-03T22:18:32.917Z,16.80
2018-06-03T22:21:01.209Z,19.10
2018-06-03T22:23:29.220Z,27.03
2018-06-03T22:25:57.579Z,24.50
2018-06-03T22:28:25.858Z,24.40
2018-06-03T22:30:54.108Z,29.83
2018-06-03T22:33:22.388Z,24.80
2018-06-03T22:35:50.700Z,27.63
2018-06-03T22:38:19.032Z,24.27
2018-06-03T22:40:47.412Z,27.13
2018-06-03T22:43:15.698Z,23.90
2018-06-03T22:45:43.981Z,25.80
2018-06-03T22:48:12.004Z,29.27
2018-06-03T22:50:40.351Z,26.67
2018-06-03T22:53:08.441Z,25.23
2018-06-03T22:55:36.707Z,36.03
2018-06-03T22:58:04.998Z,24.57
2018-06-03T23:00:33.919Z,29.13
2018-06-03T23:03:07.380Z,29.37
2018-06-03T23:05:36.006Z,29.50
2018-06-03T23:08:04.323Z,26.67
2018-06-03T23:10:32.604Z,28.10
2018-06-03T23:13:00.915Z,28.17
2018-06-03T23:15:29.207Z,34.37
2018-06-03T23:17:57.875Z,29.27
2018-06-03T23:20:26.463Z,32.83
2018-06-03T23:22:54.792Z,32.53
2018-06-03T23:25:23.077Z,31.13
2018-06-03T23:27:51.334Z,33.33
2018-06-03T23:30:19.785Z,33.60
2018-06-03T23:32:48.040Z,40.87
2018-06-03T23:35:16.296Z,35.63
2018-06-03T23:37:44.359Z,31.17
2018-06-03T23:40:12.745Z,37.37
2018-06-03T23:42:41.013Z,34.67
2018-06-03T23:45:09.329Z,38.10
2018-06-03T23:47:37.580Z,35.00
2018-06-03T23:50:05.845Z,39.57
2018-06-03T23:52:34.115Z,39.50
2018-06-03T23:55:02.397Z,42.67
2018-06-03T23:57:30.690Z,42.33
2018-06-03T23:59:58.976Z,39.60
